Time;durP1;ratioP1;P1;durP2;ratioP2;P2;SDS_P1;SDS_P2;PMS_P1;PMS_P2;Temp;Humidity;BMP_temperature;BMP_pressure;BME280_temperature;BME280_humidity;BME280_pressure;Samples;Min_cycle;Max_cycle;Signal;HPM_P1;HPM_P2
2023/01/06 00:01:21;;;;;;;0.63;0.63;;;;;;;;;;4953873;29;20222;-75
2023/01/06 00:06:26;;;;;;;0.60;0.60;;;;;;;;;;4914284;29;20215;-76
2023/01/06 00:08:52;;;;;;;0.67;0.67;;;;;;;;;;4915873;29;20267;-77
2023/01/06 00:11:18;;;;;;;0.60;0.60;;;;;;;;;;4915168;29;20228;-76
2023/01/06 00:13:44;;;;;;;0.63;0.63;;;;;;;;;;4914706;29;20183;-76
2023/01/06 00:16:11;;;;;;;0.60;0.60;;;;;;;;;;4915119;29;20202;-76
2023/01/06 00:18:37;;;;;;;0.70;0.70;;;;;;;;;;4915132;29;20183;-76
2023/01/06 00:21:03;;;;;;;0.53;0.53;;;;;;;;;;4915286;29;20208;-74
2023/01/06 00:23:29;;;;;;;0.60;0.60;;;;;;;;;;4914992;29;20194;-74
2023/01/06 00:25:55;;;;;;;0.60;0.60;;;;;;;;;;4915060;29;20254;-75
2023/01/06 00:28:21;;;;;;;0.60;0.60;;;;;;;;;;4915140;29;20557;-75
2023/01/06 00:30:47;;;;;;;0.50;0.50;;;;;;;;;;4915063;29;20195;-75
2023/01/06 00:33:13;;;;;;;0.63;0.63;;;;;;;;;;4914414;29;20187;-75
2023/01/06 00:35:39;;;;;;;0.60;0.60;;;;;;;;;;4915165;29;20231;-75
2023/01/06 00:38:05;;;;;;;0.50;0.50;;;;;;;;;;4914942;29;20182;-75
2023/01/06 00:40:31;;;;;;;0.70;0.70;;;;;;;;;;4915018;29;20184;-75
2023/01/06 00:42:57;;;;;;;0.60;0.60;;;;;;;;;;4914593;29;20184;-75
2023/01/06 00:45:23;;;;;;;0.67;0.67;;;;;;;;;;4914794;29;20306;-75
2023/01/06 00:47:49;;;;;;;0.70;0.70;;;;;;;;;;4914992;29;20214;-73
2023/01/06 00:50:15;;;;;;;0.60;0.60;;;;;;;;;;4915353;29;20188;-75
2023/01/06 00:52:41;;;;;;;0.50;0.50;;;;;;;;;;4914890;29;20350;-75
2023/01/06 00:55:07;;;;;;;0.70;0.70;;;;;;;;;;4915058;29;20211;-76
2023/01/06 00:57:33;;;;;;;0.67;0.67;;;;;;;;;;4914766;29;20665;-76
2023/01/06 00:59:59;;;;;;;0.70;0.70;;;;;;;;;;4914803;29;20719;-76
2023/01/06 01:02:25;;;;;;;0.60;0.60;;;;;;;;;;4915164;29;20180;-75
2023/01/06 01:04:51;;;;;;;0.77;0.77;;;;;;;;;;4914207;29;20585;-75
2023/01/06 01:07:17;;;;;;;0.67;0.67;;;;;;;;;;4914922;29;20188;-75
2023/01/06 01:09:43;;;;;;;0.60;0.60;;;;;;;;;;4914896;29;20183;-75
2023/01/06 01:12:13;;;;;;;0.50;0.50;;;;;;;;;;4914775;29;20195;-75
2023/01/06 01:14:46;;;;;;;0.53;0.53;;;;;;;;;;4914104;29;20550;-75
2023/01/06 01:17:12;;;;;;;0.60;0.60;;;;;;;;;;4914545;29;20716;-75
2023/01/06 01:19:38;;;;;;;0.60;0.60;;;;;;;;;;4914601;29;20183;-76
2023/01/06 01:22:04;;;;;;;0.57;0.57;;;;;;;;;;4914712;29;20211;-76
2023/01/06 01:24:30;;;;;;;0.60;0.60;;;;;;;;;;4916671;29;20225;-76
2023/01/06 01:26:56;;;;;;;0.57;0.57;;;;;;;;;;4918209;29;20345;-76
2023/01/06 01:29:22;;;;;;;0.60;0.60;;;;;;;;;;4918103;29;20183;-75
2023/01/06 01:31:48;;;;;;;0.60;0.60;;;;;;;;;;4917973;29;20180;-76
2023/01/06 01:34:15;;;;;;;0.70;0.70;;;;;;;;;;4917535;29;20210;-75
2023/01/06 01:36:42;;;;;;;0.50;0.50;;;;;;;;;;4917906;29;20528;-75
2023/01/06 01:39:09;;;;;;;0.53;0.53;;;;;;;;;;4917808;29;20645;-74
2023/01/06 01:41:35;;;;;;;0.60;0.60;;;;;;;;;;4917766;29;20211;-75
2023/01/06 01:44:02;;;;;;;0.70;0.70;;;;;;;;;;4917172;29;20211;-75
2023/01/06 01:46:33;;;;;;;0.60;0.60;;;;;;;;;;4917934;29;20223;-75
2023/01/06 01:49:04;;;;;;;0.60;0.60;;;;;;;;;;4917663;29;20634;-75
2023/01/06 01:51:32;;;;;;;0.60;0.60;;;;;;;;;;4917790;29;20227;-76
2023/01/06 01:54:00;;;;;;;0.70;0.70;;;;;;;;;;4917413;29;20191;-75
2023/01/06 01:56:28;;;;;;;0.70;0.70;;;;;;;;;;4917629;29;20180;-75
2023/01/06 01:58:57;;;;;;;0.60;0.60;;;;;;;;;;4917420;29;20191;-76
2023/01/06 02:01:24;;;;;;;0.60;0.60;;;;;;;;;;4917979;29;20176;-75
2023/01/06 02:03:50;;;;;;;0.63;0.63;;;;;;;;;;4916935;29;20176;-75
2023/01/06 02:06:17;;;;;;;0.60;0.60;;;;;;;;;;4917227;29;20232;-75
2023/01/06 02:08:49;;;;;;;0.60;0.60;;;;;;;;;;4917330;29;20664;-75
2023/01/06 02:11:15;;;;;;;0.50;0.50;;;;;;;;;;4917171;29;20188;-75
2023/01/06 02:13:42;;;;;;;0.70;0.70;;;;;;;;;;4916724;29;20622;-75
2023/01/06 02:16:19;;;;;;;0.50;0.50;;;;;;;;;;4917291;29;20215;-76
2023/01/06 02:19:08;;;;;;;0.50;0.50;;;;;;;;;;4917046;29;20689;-75
2023/01/06 02:22:00;;;;;;;0.80;0.80;;;;;;;;;;4909482;29;20279;-75
2023/01/06 02:24:32;;;;;;;0.60;0.60;;;;;;;;;;4913685;29;20244;-75
2023/01/06 02:27:16;;;;;;;0.70;0.70;;;;;;;;;;4917195;29;20207;-75
2023/01/06 02:29:49;;;;;;;0.60;0.60;;;;;;;;;;4916970;29;20176;-76
2023/01/06 02:32:34;;;;;;;0.60;0.60;;;;;;;;;;4917196;29;20180;-75
2023/01/06 02:35:00;;;;;;;0.60;0.60;;;;;;;;;;4915759;29;20617;-76
2023/01/06 02:37:44;;;;;;;0.77;0.77;;;;;;;;;;4916797;29;20180;-76
2023/01/06 02:40:19;;;;;;;0.63;0.63;;;;;;;;;;4916718;29;20187;-76
2023/01/06 02:43:05;;;;;;;0.70;0.70;;;;;;;;;;4916368;29;20190;-76
2023/01/06 02:45:49;;;;;;;0.60;0.60;;;;;;;;;;4916535;29;20678;-76
2023/01/06 02:48:18;;;;;;;0.60;0.60;;;;;;;;;;4916872;29;20556;-76
2023/01/06 02:50:48;;;;;;;0.60;0.60;;;;;;;;;;4916766;29;20700;-76
2023/01/06 02:53:22;;;;;;;0.60;0.60;;;;;;;;;;4916260;29;20263;-76
2023/01/06 02:55:49;;;;;;;0.60;0.60;;;;;;;;;;4916263;29;20550;-76
2023/01/06 02:58:24;;;;;;;0.70;0.70;;;;;;;;;;4916504;29;20583;-76
2023/01/06 03:00:52;;;;;;;0.70;0.70;;;;;;;;;;4916313;29;20704;-76
2023/01/06 03:03:23;;;;;;;0.60;0.60;;;;;;;;;;4915858;29;20695;-76
2023/01/06 03:05:51;;;;;;;0.60;0.60;;;;;;;;;;4916155;29;20619;-76
2023/01/06 03:08:20;;;;;;;0.60;0.60;;;;;;;;;;4916229;29;20183;-76
2023/01/06 03:10:47;;;;;;;0.70;0.70;;;;;;;;;;4916222;29;20184;-76
2023/01/06 03:13:18;;;;;;;0.60;0.60;;;;;;;;;;4915735;29;20326;-76
2023/01/06 03:15:44;;;;;;;0.50;0.50;;;;;;;;;;4915888;29;20227;-76
2023/01/06 03:18:10;;;;;;;0.60;0.60;;;;;;;;;;4916224;29;20582;-76
2023/01/06 03:20:36;;;;;;;0.63;0.63;;;;;;;;;;4916148;29;20187;-75
2023/01/06 03:23:02;;;;;;;0.73;0.73;;;;;;;;;;4915632;29;20525;-75
2023/01/06 03:25:29;;;;;;;0.60;0.60;;;;;;;;;;4915871;29;20222;-75
2023/01/06 03:27:55;;;;;;;0.53;0.53;;;;;;;;;;4915788;29;20175;-75
2023/01/06 03:30:21;;;;;;;0.70;0.70;;;;;;;;;;4915760;29;20215;-76
2023/01/06 03:32:46;;;;;;;0.60;0.60;;;;;;;;;;4915501;29;20180;-76
2023/01/06 03:35:16;;;;;;;0.60;0.60;;;;;;;;;;4915825;29;20203;-76
2023/01/06 03:37:52;;;;;;;0.60;0.60;;;;;;;;;;4915693;29;20195;-76
2023/01/06 03:40:30;;;;;;;0.70;0.70;;;;;;;;;;4915715;29;20641;-76
2023/01/06 03:43:15;;;;;;;0.73;0.73;;;;;;;;;;4914973;29;20648;-76
2023/01/06 03:45:55;;;;;;;0.50;0.50;;;;;;;;;;4914968;29;20215;-76
2023/01/06 03:48:39;;;;;;;0.70;0.70;;;;;;;;;;4915505;29;20551;-76
2023/01/06 03:51:14;;;;;;;0.60;0.60;;;;;;;;;;4915446;29;20211;-76
2023/01/06 03:53:57;;;;;;;0.60;0.60;;;;;;;;;;4914808;29;20521;-76
2023/01/06 03:56:36;;;;;;;0.50;0.50;;;;;;;;;;4915680;29;20633;-76
2023/01/06 03:59:07;;;;;;;0.60;0.60;;;;;;;;;;4915539;29;20183;-76
2023/01/06 04:01:33;;;;;;;0.60;0.60;;;;;;;;;;4915539;29;20190;-76
2023/01/06 04:04:00;;;;;;;0.80;0.80;;;;;;;;;;4914684;29;20274;-76
2023/01/06 04:06:26;;;;;;;0.60;0.60;;;;;;;;;;4915425;29;20697;-76
2023/01/06 04:08:52;;;;;;;0.60;0.60;;;;;;;;;;4915814;29;20203;-76
2023/01/06 04:14:03;;;;;;;0.60;0.60;;;;;;;;;;4921207;29;20190;-76
2023/01/06 04:16:29;;;;;;;0.50;0.50;;;;;;;;;;4922120;29;20267;-76
2023/01/06 04:18:55;;;;;;;0.70;0.70;;;;;;;;;;4917353;29;20215;-76
2023/01/06 04:21:21;;;;;;;0.60;0.60;;;;;;;;;;4914971;29;20238;-76
2023/01/06 04:23:47;;;;;;;0.60;0.60;;;;;;;;;;4914435;29;20648;-76
2023/01/06 04:26:13;;;;;;;0.70;0.70;;;;;;;;;;4914779;29;20230;-76
2023/01/06 04:28:39;;;;;;;0.70;0.70;;;;;;;;;;4915131;29;20282;-76
2023/01/06 04:31:07;;;;;;;0.63;0.63;;;;;;;;;;4915141;29;20191;-76
2023/01/06 04:33:34;;;;;;;0.70;0.70;;;;;;;;;;4914424;29;20607;-76
2023/01/06 04:36:00;;;;;;;0.60;0.60;;;;;;;;;;4914866;29;20215;-76
2023/01/06 04:38:26;;;;;;;0.73;0.73;;;;;;;;;;4914875;29;20184;-76
2023/01/06 04:40:52;;;;;;;0.60;0.60;;;;;;;;;;4914895;29;20183;-76
2023/01/06 04:43:18;;;;;;;0.60;0.60;;;;;;;;;;4914255;29;20621;-76
2023/01/06 04:45:44;;;;;;;0.70;0.70;;;;;;;;;;4914574;29;20314;-76
2023/01/06 04:48:11;;;;;;;0.70;0.70;;;;;;;;;;4914676;29;20636;-76
2023/01/06 04:50:37;;;;;;;0.80;0.80;;;;;;;;;;4914899;29;20215;-76
2023/01/06 04:53:04;;;;;;;0.70;0.70;;;;;;;;;;4914261;29;20617;-77
2023/01/06 04:55:30;;;;;;;0.70;0.70;;;;;;;;;;4914729;29;20287;-77
2023/01/06 04:57:56;;;;;;;0.70;0.70;;;;;;;;;;4915233;29;20271;-76
2023/01/06 05:00:22;;;;;;;0.70;0.70;;;;;;;;;;4918701;29;20660;-77
2023/01/06 05:02:48;;;;;;;0.60;0.60;;;;;;;;;;4918079;29;20191;-77
2023/01/06 05:05:15;;;;;;;0.70;0.70;;;;;;;;;;4918156;29;20291;-77
2023/01/06 05:07:41;;;;;;;0.70;0.70;;;;;;;;;;4918411;29;20263;-76
2023/01/06 05:10:08;;;;;;;0.70;0.70;;;;;;;;;;4918335;29;20207;-76
2023/01/06 05:12:34;;;;;;;0.70;0.70;;;;;;;;;;4917730;29;20187;-76
2023/01/06 05:15:00;;;;;;;0.67;0.67;;;;;;;;;;4918334;29;20211;-76
2023/01/06 05:17:26;;;;;;;0.60;0.60;;;;;;;;;;4918317;29;20183;-76
2023/01/06 05:19:52;;;;;;;0.60;0.60;;;;;;;;;;4918235;29;20183;-76
2023/01/06 05:22:18;;;;;;;0.80;0.80;;;;;;;;;;4918287;29;20176;-77
2023/01/06 05:24:44;;;;;;;0.70;0.70;;;;;;;;;;4917500;29;20626;-76
2023/01/06 05:27:10;;;;;;;0.80;0.80;;;;;;;;;;4918053;29;20188;-76
2023/01/06 05:29:36;;;;;;;0.63;0.63;;;;;;;;;;4918331;29;20195;-75
2023/01/06 05:32:03;;;;;;;0.60;0.60;;;;;;;;;;4918097;29;20188;-76
2023/01/06 05:34:29;;;;;;;0.77;0.77;;;;;;;;;;4917194;29;20583;-76
2023/01/06 05:36:55;;;;;;;0.70;0.70;;;;;;;;;;4918090;29;20184;-75
2023/01/06 05:39:21;;;;;;;0.70;0.70;;;;;;;;;;4917805;29;20176;-76
2023/01/06 05:41:47;;;;;;;0.60;0.60;;;;;;;;;;4917652;29;20244;-76
2023/01/06 05:44:13;;;;;;;0.60;0.60;;;;;;;;;;4917392;29;20182;-76
2023/01/06 05:46:39;;;;;;;0.80;0.80;;;;;;;;;;4917506;29;20215;-76
2023/01/06 05:49:05;;;;;;;0.67;0.67;;;;;;;;;;4917855;29;20180;-76
2023/01/06 05:51:31;;;;;;;0.70;0.70;;;;;;;;;;4917672;29;20594;-76
2023/01/06 05:53:57;;;;;;;0.70;0.70;;;;;;;;;;4916857;29;20185;-76
2023/01/06 05:56:23;;;;;;;0.70;0.70;;;;;;;;;;4917433;29;20211;-76
2023/01/06 05:58:51;;;;;;;0.70;0.70;;;;;;;;;;4917660;29;20567;-75
2023/01/06 06:01:24;;;;;;;0.80;0.80;;;;;;;;;;4917708;29;20204;-76
2023/01/06 06:03:50;;;;;;;0.70;0.70;;;;;;;;;;4916972;29;20176;-76
2023/01/06 06:06:17;;;;;;;0.60;0.60;;;;;;;;;;4962799;23;20284;-79
2023/01/06 06:08:43;;;;;;;0.70;0.70;;;;;;;;;;4956682;28;20248;-78
2023/01/06 06:11:10;;;;;;;0.67;0.67;;;;;;;;;;4956149;29;20680;-79
2023/01/06 06:13:36;;;;;;;0.70;0.70;;;;;;;;;;4957106;29;20190;-78
2023/01/06 06:16:09;;;;;;;0.70;0.70;;;;;;;;;;4940456;29;20199;-79
2023/01/06 06:18:41;;;;;;;0.73;0.73;;;;;;;;;;4939937;29;20187;-78
2023/01/06 06:21:07;;;;;;;0.70;0.70;;;;;;;;;;4937110;29;20669;-77
2023/01/06 06:23:33;;;;;;;0.60;0.60;;;;;;;;;;4936488;29;20181;-77
2023/01/06 06:25:59;;;;;;;0.70;0.70;;;;;;;;;;4936458;29;20305;-76
2023/01/06 06:28:25;;;;;;;0.70;0.70;;;;;;;;;;4936554;29;20184;-77
2023/01/06 06:30:51;;;;;;;0.70;0.70;;;;;;;;;;4936374;29;20558;-77
2023/01/06 06:33:17;;;;;;;0.70;0.70;;;;;;;;;;4936019;29;20181;-77
2023/01/06 06:35:43;;;;;;;0.70;0.70;;;;;;;;;;4936777;29;20199;-77
2023/01/06 06:38:09;;;;;;;0.70;0.70;;;;;;;;;;4936557;29;20183;-77
2023/01/06 06:40:35;;;;;;;0.70;0.70;;;;;;;;;;4936076;29;20278;-77
2023/01/06 06:43:01;;;;;;;0.70;0.70;;;;;;;;;;4936105;29;20183;-77
2023/01/06 06:45:27;;;;;;;0.60;0.60;;;;;;;;;;4936114;29;20626;-77
2023/01/06 06:47:54;;;;;;;0.73;0.73;;;;;;;;;;4936481;29;20183;-77
2023/01/06 06:50:20;;;;;;;0.70;0.70;;;;;;;;;;4936085;29;20214;-76
2023/01/06 06:52:46;;;;;;;0.70;0.70;;;;;;;;;;4935937;29;20202;-75
2023/01/06 06:55:12;;;;;;;0.70;0.70;;;;;;;;;;4954580;29;20235;-74
2023/01/06 06:57:37;;;;;;;0.70;0.70;;;;;;;;;;4959757;29;20210;-74
2023/01/06 07:00:04;;;;;;;0.60;0.60;;;;;;;;;;4958461;29;20188;-76
2023/01/06 07:02:30;;;;;;;0.70;0.70;;;;;;;;;;4937446;29;20214;-77
2023/01/06 07:04:56;;;;;;;0.70;0.70;;;;;;;;;;4936412;29;20258;-74
2023/01/06 07:07:21;;;;;;;0.60;0.60;;;;;;;;;;4935688;29;20180;-76
2023/01/06 07:09:47;;;;;;;0.70;0.70;;;;;;;;;;4935849;29;20182;-77
2023/01/06 07:12:13;;;;;;;0.70;0.70;;;;;;;;;;4935327;29;20175;-75
2023/01/06 07:14:39;;;;;;;0.70;0.70;;;;;;;;;;4934836;29;20210;-75
2023/01/06 07:17:05;;;;;;;0.60;0.60;;;;;;;;;;4935065;29;20175;-76
2023/01/06 07:19:31;;;;;;;0.60;0.60;;;;;;;;;;4935172;29;20179;-74
2023/01/06 07:21:57;;;;;;;0.60;0.60;;;;;;;;;;4934865;29;20266;-76
2023/01/06 07:24:23;;;;;;;0.57;0.57;;;;;;;;;;4934575;29;20732;-74
2023/01/06 07:26:49;;;;;;;0.60;0.60;;;;;;;;;;4935203;29;20563;-76
2023/01/06 07:29:15;;;;;;;0.60;0.60;;;;;;;;;;4935191;29;20249;-76
2023/01/06 07:31:41;;;;;;;0.70;0.70;;;;;;;;;;4935080;29;20175;-76
2023/01/06 07:34:07;;;;;;;0.60;0.60;;;;;;;;;;4934458;29;20589;-75
2023/01/06 07:36:33;;;;;;;0.70;0.70;;;;;;;;;;4935067;29;20610;-76
2023/01/06 07:38:59;;;;;;;0.50;0.50;;;;;;;;;;4935200;29;20186;-76
2023/01/06 07:41:25;;;;;;;0.70;0.70;;;;;;;;;;4935155;29;20683;-76
2023/01/06 07:43:51;;;;;;;0.70;0.70;;;;;;;;;;4934599;29;20187;-76
2023/01/06 07:46:17;;;;;;;0.60;0.60;;;;;;;;;;4934667;29;20250;-77
2023/01/06 07:48:43;;;;;;;0.50;0.50;;;;;;;;;;4934590;29;20175;-77
2023/01/06 07:51:09;;;;;;;0.60;0.60;;;;;;;;;;4934830;29;20686;-76
2023/01/06 07:53:35;;;;;;;0.50;0.50;;;;;;;;;;4934288;29;20521;-76
2023/01/06 07:56:00;;;;;;;0.50;0.50;;;;;;;;;;4934806;29;20571;-76
2023/01/06 07:58:27;;;;;;;0.40;0.40;;;;;;;;;;4934900;29;20324;-74
2023/01/06 08:00:53;;;;;;;0.40;0.40;;;;;;;;;;4934819;29;20266;-74
2023/01/06 08:03:19;;;;;;;0.50;0.50;;;;;;;;;;4934103;29;20657;-73
2023/01/06 08:05:45;;;;;;;0.40;0.40;;;;;;;;;;4934453;29;20254;-76
2023/01/06 08:08:11;;;;;;;0.50;0.50;;;;;;;;;;4934380;29;20175;-75
2023/01/06 08:10:41;;;;;;;0.50;0.50;;;;;;;;;;4934627;29;20183;-74
2023/01/06 08:13:08;;;;;;;0.40;0.40;;;;;;;;;;4933875;29;20238;-76
2023/01/06 08:15:35;;;;;;;0.50;0.50;;;;;;;;;;4935030;29;20259;-75
2023/01/06 08:18:01;;;;;;;0.50;0.50;;;;;;;;;;4934288;29;20230;-75
2023/01/06 08:20:27;;;;;;;0.60;0.60;;;;;;;;;;4934739;29;20567;-75
2023/01/06 08:22:53;;;;;;;0.60;0.60;;;;;;;;;;4933896;29;20282;-75
2023/01/06 08:25:19;;;;;;;0.50;0.50;;;;;;;;;;4934313;29;20759;-74
2023/01/06 08:27:45;;;;;;;0.50;0.50;;;;;;;;;;4934260;29;20233;-76
2023/01/06 08:30:11;;;;;;;0.47;0.47;;;;;;;;;;4932390;29;20274;-76
2023/01/06 08:32:37;;;;;;;0.60;0.60;;;;;;;;;;4914980;29;20246;-76
2023/01/06 08:35:03;;;;;;;0.60;0.60;;;;;;;;;;4923702;29;20612;-76
2023/01/06 08:37:29;;;;;;;0.40;0.40;;;;;;;;;;4925140;29;20187;-75
2023/01/06 08:39:55;;;;;;;0.50;0.50;;;;;;;;;;4934231;29;20246;-75
2023/01/06 08:42:21;;;;;;;0.40;0.40;;;;;;;;;;4920982;29;20191;-78
2023/01/06 08:44:47;;;;;;;0.50;0.50;;;;;;;;;;4914091;29;20207;-73
2023/01/06 08:47:13;;;;;;;0.57;0.57;;;;;;;;;;4914951;29;20196;-73
2023/01/06 08:49:39;;;;;;;0.47;0.47;;;;;;;;;;4915080;29;20663;-74
2023/01/06 08:52:05;;;;;;;0.50;0.50;;;;;;;;;;4929659;29;20186;-74
2023/01/06 08:54:31;;;;;;;0.60;0.60;;;;;;;;;;4933499;29;20216;-73
2023/01/06 08:56:57;;;;;;;0.50;0.50;;;;;;;;;;4934398;29;20183;-75
2023/01/06 08:59:23;;;;;;;0.60;0.60;;;;;;;;;;4935618;29;20191;-76
2023/01/06 09:01:49;;;;;;;0.50;0.50;;;;;;;;;;4934259;29;20191;-75
2023/01/06 09:04:15;;;;;;;0.50;0.50;;;;;;;;;;4933486;29;20327;-75
2023/01/06 09:06:46;;;;;;;0.50;0.50;;;;;;;;;;4933893;29;20233;-74
2023/01/06 09:09:12;;;;;;;0.50;0.50;;;;;;;;;;4934943;29;20648;-75
2023/01/06 09:11:42;;;;;;;0.40;0.40;;;;;;;;;;4934053;29;20186;-76
2023/01/06 09:14:08;;;;;;;0.50;0.50;;;;;;;;;;4933264;29;20296;-75
2023/01/06 09:16:34;;;;;;;0.40;0.40;;;;;;;;;;4933923;29;20207;-77
2023/01/06 09:19:00;;;;;;;0.40;0.40;;;;;;;;;;4933777;29;20211;-76
2023/01/06 09:21:26;;;;;;;0.53;0.53;;;;;;;;;;4933953;29;20183;-75
2023/01/06 09:23:52;;;;;;;0.50;0.50;;;;;;;;;;4934813;29;20563;-74
2023/01/06 09:26:20;;;;;;;0.50;0.50;;;;;;;;;;4933999;29;20222;-75
2023/01/06 09:28:46;;;;;;;0.60;0.60;;;;;;;;;;4934520;29;20258;-75
2023/01/06 09:31:12;;;;;;;0.60;0.60;;;;;;;;;;4934618;29;20755;-74
2023/01/06 09:33:38;;;;;;;0.50;0.50;;;;;;;;;;4935783;29;20187;-74
2023/01/06 09:36:05;;;;;;;0.50;0.50;;;;;;;;;;4944326;28;20217;-75
2023/01/06 09:38:31;;;;;;;0.60;0.60;;;;;;;;;;4950613;29;20179;-75
2023/01/06 09:41:06;;;;;;;0.50;0.50;;;;;;;;;;4947834;29;20189;-75
2023/01/06 09:43:35;;;;;;;0.60;0.60;;;;;;;;;;4953610;28;20326;-74
2023/01/06 09:46:03;;;;;;;0.60;0.60;;;;;;;;;;4957166;28;20232;-76
2023/01/06 09:48:50;;;;;;;0.60;0.60;;;;;;;;;;4956300;29;20178;-75
2023/01/06 09:51:20;;;;;;;0.50;0.50;;;;;;;;;;4944759;29;20603;-74
2023/01/06 09:53:52;;;;;;;0.47;0.47;;;;;;;;;;4956155;29;20269;-74
2023/01/06 09:56:18;;;;;;;0.50;0.50;;;;;;;;;;4959932;28;20214;-74
2023/01/06 09:59:03;;;;;;;0.50;0.50;;;;;;;;;;4958064;29;20202;-75
2023/01/06 10:01:35;;;;;;;0.60;0.60;;;;;;;;;;4955916;29;20182;-74
2023/01/06 10:04:01;;;;;;;0.50;0.50;;;;;;;;;;4955245;28;20175;-74
2023/01/06 10:06:30;;;;;;;0.60;0.60;;;;;;;;;;4961374;28;20313;-75
2023/01/06 10:08:56;;;;;;;0.50;0.50;;;;;;;;;;4945444;29;20715;-75
2023/01/06 10:11:40;;;;;;;0.57;0.57;;;;;;;;;;4942679;29;20191;-75
2023/01/06 10:14:13;;;;;;;0.50;0.50;;;;;;;;;;4940036;29;20191;-74
2023/01/06 10:16:51;;;;;;;0.53;0.53;;;;;;;;;;4943680;29;20266;-76
2023/01/06 10:19:26;;;;;;;0.50;0.50;;;;;;;;;;4935714;29;20277;-75
2023/01/06 10:22:01;;;;;;;0.50;0.50;;;;;;;;;;4929380;29;20179;-75
2023/01/06 10:24:31;;;;;;;0.50;0.50;;;;;;;;;;4936193;29;20202;-74
2023/01/06 10:26:58;;;;;;;0.53;0.53;;;;;;;;;;4937903;29;20783;-75
2023/01/06 10:29:28;;;;;;;0.50;0.50;;;;;;;;;;4937478;29;20598;-76
2023/01/06 10:31:56;;;;;;;0.60;0.60;;;;;;;;;;4938794;29;20601;-77
2023/01/06 10:34:23;;;;;;;0.50;0.50;;;;;;;;;;4937255;29;20258;-74
2023/01/06 10:37:09;;;;;;;0.57;0.57;;;;;;;;;;4937624;29;20604;-75
2023/01/06 10:39:36;;;;;;;0.60;0.60;;;;;;;;;;4936789;29;20179;-76
2023/01/06 10:45:07;;;;;;;0.50;0.50;;;;;;;;;;4936865;29;20265;-75
2023/01/06 10:47:36;;;;;;;0.40;0.40;;;;;;;;;;4936805;29;20611;-75
2023/01/06 10:50:02;;;;;;;0.50;0.50;;;;;;;;;;4937919;29;20266;-76
2023/01/06 10:52:29;;;;;;;0.37;0.37;;;;;;;;;;4937063;29;20230;-77
2023/01/06 10:54:58;;;;;;;0.40;0.40;;;;;;;;;;4939811;29;20285;-76
2023/01/06 10:57:29;;;;;;;0.50;0.50;;;;;;;;;;4934972;29;20679;-75
2023/01/06 11:00:15;;;;;;;0.40;0.40;;;;;;;;;;4936952;29;20644;-75
2023/01/06 11:02:52;;;;;;;0.50;0.50;;;;;;;;;;4935608;29;20199;-79
2023/01/06 11:05:27;;;;;;;0.50;0.50;;;;;;;;;;4935654;29;20281;-74
2023/01/06 11:07:56;;;;;;;0.40;0.40;;;;;;;;;;4935853;29;20628;-75
2023/01/06 11:10:45;;;;;;;0.50;0.50;;;;;;;;;;4935660;29;20215;-77
2023/01/06 11:13:22;;;;;;;0.40;0.40;;;;;;;;;;4930042;29;20183;-75
2023/01/06 11:15:49;;;;;;;0.60;0.60;;;;;;;;;;4935142;29;20286;-75
2023/01/06 11:18:20;;;;;;;0.50;0.50;;;;;;;;;;4935151;29;20234;-75
2023/01/06 11:21:00;;;;;;;0.40;0.40;;;;;;;;;;4934975;29;20207;-74
2023/01/06 11:23:27;;;;;;;0.40;0.40;;;;;;;;;;4932928;29;20199;-74
2023/01/06 11:26:01;;;;;;;0.50;0.50;;;;;;;;;;4934768;29;20242;-74
2023/01/06 11:28:27;;;;;;;0.40;0.40;;;;;;;;;;4934330;29;20171;-73
2023/01/06 11:30:55;;;;;;;0.40;0.40;;;;;;;;;;4934694;29;20194;-73
2023/01/06 11:33:23;;;;;;;0.40;0.40;;;;;;;;;;4935039;29;20174;-74
2023/01/06 11:35:49;;;;;;;0.50;0.50;;;;;;;;;;4934909;29;20210;-76
2023/01/06 11:38:16;;;;;;;0.50;0.50;;;;;;;;;;4935482;29;20187;-74
2023/01/06 11:40:43;;;;;;;0.43;0.43;;;;;;;;;;4935544;29;20194;-75
2023/01/06 11:43:12;;;;;;;0.50;0.50;;;;;;;;;;4936105;29;20267;-74
2023/01/06 11:45:41;;;;;;;0.57;0.57;;;;;;;;;;4934062;29;20239;-75
2023/01/06 11:48:14;;;;;;;0.60;0.60;;;;;;;;;;4927273;29;20325;-75
2023/01/06 11:50:40;;;;;;;0.60;0.60;;;;;;;;;;4925518;29;20180;-74
2023/01/06 11:53:15;;;;;;;0.50;0.50;;;;;;;;;;4921057;29;20191;-75
2023/01/06 11:55:41;;;;;;;0.60;0.60;;;;;;;;;;4925436;29;20195;-75
2023/01/06 11:58:18;;;;;;;0.40;0.40;;;;;;;;;;4919776;29;20188;-75
2023/01/06 12:01:06;;;;;;;0.47;0.47;;;;;;;;;;4926174;29;20378;-75
2023/01/06 12:03:41;;;;;;;0.50;0.50;;;;;;;;;;4935397;29;20171;-74
2023/01/06 12:06:18;;;;;;;0.50;0.50;;;;;;;;;;4960210;23;20649;-76
2023/01/06 12:09:02;;;;;;;0.50;0.50;;;;;;;;;;4961927;28;20665;-77
2023/01/06 12:11:43;;;;;;;0.50;0.50;;;;;;;;;;4961915;28;20331;-76
2023/01/06 12:14:14;;;;;;;0.50;0.50;;;;;;;;;;4951261;28;20182;-75
2023/01/06 12:16:45;;;;;;;0.50;0.50;;;;;;;;;;4943333;29;20193;-76
2023/01/06 12:19:40;;;;;;;0.50;0.50;;;;;;;;;;4938777;29;20191;-75
2023/01/06 12:22:10;;;;;;;0.50;0.50;;;;;;;;;;4945285;29;20666;-74
2023/01/06 12:24:37;;;;;;;0.50;0.50;;;;;;;;;;4952396;28;20642;-73
2023/01/06 12:27:04;;;;;;;0.40;0.40;;;;;;;;;;4949743;29;20229;-72
2023/01/06 12:29:31;;;;;;;0.50;0.50;;;;;;;;;;4941794;29;20183;-73
2023/01/06 12:32:00;;;;;;;0.50;0.50;;;;;;;;;;4951179;29;20532;-74
2023/01/06 12:34:35;;;;;;;0.60;0.60;;;;;;;;;;4952240;28;20206;-73
2023/01/06 12:37:09;;;;;;;0.50;0.50;;;;;;;;;;4952842;29;20265;-73
2023/01/06 12:39:35;;;;;;;0.50;0.50;;;;;;;;;;4952362;29;20266;-73
2023/01/06 12:42:20;;;;;;;0.53;0.53;;;;;;;;;;4952004;29;20325;-72
2023/01/06 12:45:12;;;;;;;0.50;0.50;;;;;;;;;;4951927;28;20202;-72
2023/01/06 12:47:44;;;;;;;0.70;0.70;;;;;;;;;;4942640;29;20190;-72
2023/01/06 12:50:16;;;;;;;0.60;0.60;;;;;;;;;;4952437;29;20298;-72
2023/01/06 12:52:47;;;;;;;0.40;0.40;;;;;;;;;;4951875;29;20269;-74
2023/01/06 12:55:15;;;;;;;0.40;0.40;;;;;;;;;;4950208;28;20214;-75
2023/01/06 12:58:00;;;;;;;0.50;0.50;;;;;;;;;;4949500;29;20190;-73
2023/01/06 13:00:41;;;;;;;0.50;0.50;;;;;;;;;;4952258;29;20641;-74
2023/01/06 13:03:10;;;;;;;0.50;0.50;;;;;;;;;;4947765;29;20190;-74
2023/01/06 13:05:36;;;;;;;0.47;0.47;;;;;;;;;;4943459;29;20297;-73
2023/01/06 13:08:13;;;;;;;0.40;0.40;;;;;;;;;;4952479;29;20183;-73
2023/01/06 13:10:42;;;;;;;0.50;0.50;;;;;;;;;;4952553;29;20188;-74
2023/01/06 13:13:11;;;;;;;0.40;0.40;;;;;;;;;;4952009;29;20690;-73
2023/01/06 13:15:40;;;;;;;0.40;0.40;;;;;;;;;;4952402;28;20195;-73
2023/01/06 13:18:18;;;;;;;0.60;0.60;;;;;;;;;;4952655;28;20245;-73
2023/01/06 13:20:55;;;;;;;0.50;0.50;;;;;;;;;;4953231;29;20225;-74
2023/01/06 13:23:21;;;;;;;0.50;0.50;;;;;;;;;;4946666;29;20233;-73
2023/01/06 13:26:06;;;;;;;0.40;0.40;;;;;;;;;;4957140;28;20218;-73
2023/01/06 13:28:43;;;;;;;0.50;0.50;;;;;;;;;;4945343;29;20289;-73
2023/01/06 13:31:26;;;;;;;0.50;0.50;;;;;;;;;;4954887;29;20651;-73
2023/01/06 13:34:00;;;;;;;0.50;0.50;;;;;;;;;;4956002;29;20591;-73
2023/01/06 13:36:26;;;;;;;0.50;0.50;;;;;;;;;;4957867;29;20179;-74
2023/01/06 13:38:56;;;;;;;0.40;0.40;;;;;;;;;;4958653;29;20245;-73
2023/01/06 13:41:25;;;;;;;0.40;0.40;;;;;;;;;;4960438;29;20197;-74
2023/01/06 13:43:53;;;;;;;0.50;0.50;;;;;;;;;;4961228;29;20664;-74
2023/01/06 13:46:21;;;;;;;0.50;0.50;;;;;;;;;;4961512;28;20230;-72
2023/01/06 13:48:52;;;;;;;0.53;0.53;;;;;;;;;;4947557;29;20230;-73
2023/01/06 13:51:22;;;;;;;0.50;0.50;;;;;;;;;;4955419;29;20241;-73
2023/01/06 13:53:49;;;;;;;0.40;0.40;;;;;;;;;;4955098;29;20218;-73
2023/01/06 13:56:15;;;;;;;0.50;0.50;;;;;;;;;;4949030;28;20214;-73
2023/01/06 13:58:44;;;;;;;0.50;0.50;;;;;;;;;;4955286;29;20628;-73
2023/01/06 14:01:19;;;;;;;0.40;0.40;;;;;;;;;;4955425;29;20269;-73
2023/01/06 14:03:47;;;;;;;0.50;0.50;;;;;;;;;;4954624;29;20252;-74
2023/01/06 14:06:21;;;;;;;0.40;0.40;;;;;;;;;;4955191;28;20310;-74
2023/01/06 14:08:52;;;;;;;0.53;0.53;;;;;;;;;;4955284;29;20192;-75
2023/01/06 14:11:29;;;;;;;0.60;0.60;;;;;;;;;;4955350;29;20215;-73
2023/01/06 14:14:05;;;;;;;0.50;0.50;;;;;;;;;;4954792;28;20277;-75
2023/01/06 14:16:57;;;;;;;0.50;0.50;;;;;;;;;;4955189;29;20201;-74
2023/01/06 14:19:31;;;;;;;0.50;0.50;;;;;;;;;;4952426;29;20182;-74
2023/01/06 14:22:15;;;;;;;0.50;0.50;;;;;;;;;;4954980;29;20182;-74
2023/01/06 14:24:43;;;;;;;0.50;0.50;;;;;;;;;;4954294;28;20282;-74
2023/01/06 14:27:10;;;;;;;0.50;0.50;;;;;;;;;;4954893;29;20228;-73
2023/01/06 14:29:40;;;;;;;0.50;0.50;;;;;;;;;;4954740;29;20622;-74
2023/01/06 14:32:06;;;;;;;0.50;0.50;;;;;;;;;;4953639;29;20191;-74
2023/01/06 14:34:34;;;;;;;0.60;0.60;;;;;;;;;;4954001;28;20249;-74
2023/01/06 14:37:00;;;;;;;0.50;0.50;;;;;;;;;;4954397;29;20178;-73
2023/01/06 14:39:26;;;;;;;0.50;0.50;;;;;;;;;;4954492;29;20183;-74
2023/01/06 14:41:59;;;;;;;0.50;0.50;;;;;;;;;;4954481;29;20674;-74
2023/01/06 14:44:48;;;;;;;0.50;0.50;;;;;;;;;;4955315;28;20206;-74
2023/01/06 14:47:32;;;;;;;0.60;0.60;;;;;;;;;;4966129;29;20218;-73
2023/01/06 14:50:13;;;;;;;0.53;0.53;;;;;;;;;;4960896;29;20195;-74
2023/01/06 14:52:42;;;;;;;0.50;0.50;;;;;;;;;;4962851;29;20576;-74
2023/01/06 14:55:10;;;;;;;0.60;0.60;;;;;;;;;;4952646;28;20198;-73
2023/01/06 14:57:40;;;;;;;0.60;0.60;;;;;;;;;;4957629;29;20186;-73
2023/01/06 15:00:06;;;;;;;0.60;0.60;;;;;;;;;;4954201;29;20193;-73
2023/01/06 15:02:33;;;;;;;0.53;0.53;;;;;;;;;;4953838;29;20185;-74
2023/01/06 15:04:59;;;;;;;0.60;0.60;;;;;;;;;;4951840;28;20234;-74